Time;durP1;ratioP1;P1;durP2;ratioP2;P2;SDS_P1;SDS_P2;PMS_P1;PMS_P2;Temp;Humidity;BMP_temperature;BMP_pressure;BME280_temperature;BME280_humidity;BME280_pressure;Samples;Min_cycle;Max_cycle;Signal;HPM_P1;HPM_P2
2022/07/30 00:01:12;;;;;;;4.05;2.72;;;17.40;99.90;;;;;;5031630;28;20048;-63
2022/07/30 00:03:37;;;;;;;5.57;2.40;;;17.50;99.90;;;;;;5031025;28;20078;-62
2022/07/30 00:06:03;;;;;;;2.15;2.00;;;17.40;99.90;;;;;;5031651;28;20022;-64
2022/07/30 00:08:29;;;;;;;5.97;2.40;;;17.40;99.90;;;;;;5032356;28;20024;-64
2022/07/30 00:10:54;;;;;;;5.32;3.05;;;17.50;99.90;;;;;;5032120;28;20025;-63
2022/07/30 00:13:20;;;;;;;3.83;1.90;;;17.50;99.90;;;;;;5030567;28;20519;-63
2022/07/30 00:15:45;;;;;;;3.65;2.33;;;17.50;99.90;;;;;;5032070;28;20033;-63
2022/07/30 00:18:11;;;;;;;4.78;2.20;;;17.50;99.90;;;;;;5013954;28;20025;-64
2022/07/30 00:20:39;;;;;;;4.00;2.33;;;17.50;99.90;;;;;;5031959;28;20024;-63
2022/07/30 00:23:05;;;;;;;4.90;2.38;;;17.50;99.90;;;;;;5030837;28;20078;-63
2022/07/30 00:25:31;;;;;;;6.75;2.58;;;17.50;99.90;;;;;;5031605;28;20041;-63
2022/07/30 00:27:59;;;;;;;5.68;2.20;;;17.50;99.90;;;;;;5031189;28;20373;-63
2022/07/30 00:30:25;;;;;;;4.75;2.72;;;17.50;99.90;;;;;;5031281;28;20026;-64
2022/07/30 00:32:51;;;;;;;3.03;2.55;;;17.50;99.90;;;;;;5030869;28;20021;-64
2022/07/30 00:35:16;;;;;;;3.92;2.10;;;17.50;99.90;;;;;;5014174;28;20025;-64
2022/07/30 00:37:42;;;;;;;2.67;1.90;;;17.50;99.90;;;;;;5031037;28;20049;-63
2022/07/30 00:40:09;;;;;;;7.35;3.10;;;17.50;99.90;;;;;;5030796;28;20052;-64
2022/07/30 00:42:38;;;;;;;4.47;2.53;;;17.50;99.90;;;;;;5029844;28;20021;-64
2022/07/30 00:45:06;;;;;;;2.88;2.17;;;17.40;99.90;;;;;;5030281;28;20021;-63
2022/07/30 00:47:31;;;;;;;3.90;2.30;;;17.50;99.90;;;;;;5031146;28;20036;-64
2022/07/30 00:49:57;;;;;;;3.83;2.30;;;17.50;99.90;;;;;;5031284;28;20037;-63
2022/07/30 00:52:22;;;;;;;2.90;2.50;;;17.50;99.90;;;;;;5029250;28;20410;-64
2022/07/30 00:54:48;;;;;;;2.75;2.35;;;17.50;99.90;;;;;;5030084;28;20021;-64
2022/07/30 00:57:14;;;;;;;2.63;1.98;;;17.50;99.90;;;;;;5014046;28;20024;-63
2022/07/30 00:59:39;;;;;;;3.80;2.55;;;17.50;99.90;;;;;;5025730;28;20035;-63
2022/07/30 01:02:05;;;;;;;3.90;2.25;;;17.50;99.90;;;;;;5028010;28;20048;-64
2022/07/30 01:04:30;;;;;;;2.83;1.77;;;17.40;99.90;;;;;;5028636;28;20116;-63
2022/07/30 01:06:56;;;;;;;3.72;2.50;;;17.40;99.90;;;;;;5030531;28;20057;-63
2022/07/30 01:09:22;;;;;;;6.10;1.95;;;17.40;99.90;;;;;;5030597;28;20112;-63
2022/07/30 01:11:47;;;;;;;2.83;1.90;;;17.40;99.90;;;;;;5029101;28;20032;-64
2022/07/30 01:14:13;;;;;;;2.03;1.85;;;17.40;99.90;;;;;;5030137;28;20043;-62
2022/07/30 01:16:41;;;;;;;5.63;2.00;;;17.40;99.90;;;;;;5031547;28;20121;-63
2022/07/30 01:22:09;;;;;;;4.03;2.13;;;17.40;99.90;;;;;;5029651;28;20060;-63
2022/07/30 01:24:43;;;;;;;5.88;2.33;;;17.40;99.90;;;;;;5027704;28;20075;-64
2022/07/30 01:27:12;;;;;;;3.50;2.15;;;17.40;99.90;;;;;;5029655;28;20037;-64
2022/07/30 01:29:40;;;;;;;4.43;2.05;;;17.30;99.90;;;;;;5027598;28;20040;-64
2022/07/30 01:32:08;;;;;;;4.63;1.80;;;17.40;99.90;;;;;;5029551;28;20069;-63
2022/07/30 01:34:36;;;;;;;2.20;1.90;;;17.40;99.90;;;;;;5030237;28;20396;-64
2022/07/30 01:37:04;;;;;;;3.20;2.20;;;17.40;99.90;;;;;;5029713;28;20472;-63
2022/07/30 01:39:30;;;;;;;2.58;2.13;;;17.30;99.90;;;;;;5030610;28;20021;-63
2022/07/30 01:41:57;;;;;;;4.82;2.10;;;17.30;99.90;;;;;;5029446;28;20029;-63
2022/07/30 01:44:25;;;;;;;4.30;2.58;;;17.30;99.90;;;;;;5029586;28;20585;-63
2022/07/30 01:46:53;;;;;;;3.55;2.20;;;17.40;99.90;;;;;;5029892;28;20485;-63
2022/07/30 01:49:21;;;;;;;3.53;1.95;;;17.30;99.90;;;;;;5012653;28;20017;-63
2022/07/30 01:51:49;;;;;;;4.05;2.35;;;17.30;99.90;;;;;;5106373;23;20068;-62
2022/07/30 01:54:17;;;;;;;2.58;2.35;;;17.30;99.90;;;;;;5014817;28;20591;-60
2022/07/30 01:56:44;;;;;;;5.82;3.00;;;17.30;99.90;;;;;;5034910;28;20040;-60
2022/07/30 01:59:11;;;;;;;2.85;2.08;;;17.30;99.90;;;;;;5033409;28;20499;-60
2022/07/30 02:01:37;;;;;;;4.07;2.60;;;17.20;99.90;;;;;;5033978;28;20045;-61
2022/07/30 02:04:03;;;;;;;2.95;2.60;;;17.30;99.90;;;;;;5010884;28;20033;-61
2022/07/30 02:06:38;;;;;;;3.70;2.30;;;17.20;99.90;;;;;;5029110;28;20029;-57
2022/07/30 02:09:05;;;;;;;3.60;2.08;;;17.20;99.90;;;;;;5029554;28;20495;-59
2022/07/30 02:14:29;;;;;;;3.38;2.50;;;17.30;99.90;;;;;;5028415;28;20045;-63
2022/07/30 02:16:57;;;;;;;2.45;2.13;;;17.30;99.90;;;;;;5011592;28;20049;-59
2022/07/30 02:19:27;;;;;;;6.10;2.45;;;17.20;99.90;;;;;;5028836;28;20078;-59
2022/07/30 02:21:59;;;;;;;4.25;2.40;;;17.20;99.90;;;;;;5027959;28;20025;-59
2022/07/30 02:24:28;;;;;;;3.63;2.70;;;17.20;99.90;;;;;;5029425;28;20059;-60
2022/07/30 02:26:59;;;;;;;4.55;2.50;;;17.20;99.90;;;;;;5011286;28;20040;-62
2022/07/30 02:29:24;;;;;;;4.82;2.25;;;17.20;99.90;;;;;;5029269;28;20082;-60
2022/07/30 02:31:53;;;;;;;2.25;2.00;;;17.10;99.90;;;;;;5010316;28;20036;-62
2022/07/30 02:34:22;;;;;;;3.35;2.17;;;17.10;99.90;;;;;;5028538;28;20625;-60
2022/07/30 02:36:48;;;;;;;4.25;2.20;;;17.10;99.90;;;;;;5028745;28;20036;-61
2022/07/30 02:39:15;;;;;;;4.45;2.38;;;17.10;99.90;;;;;;5024992;28;20396;-63
2022/07/30 02:41:43;;;;;;;4.65;2.28;;;17.10;99.90;;;;;;5028719;28;20018;-61
2022/07/30 02:44:10;;;;;;;5.25;2.53;;;17.10;99.90;;;;;;5027600;28;20239;-61
2022/07/30 02:46:37;;;;;;;4.55;2.20;;;17.10;99.90;;;;;;5011357;28;20025;-62
2022/07/30 02:49:05;;;;;;;2.60;2.30;;;17.10;99.90;;;;;;5027905;28;20491;-60
2022/07/30 02:51:33;;;;;;;3.22;2.28;;;17.10;99.90;;;;;;5027795;28;20037;-62
2022/07/30 02:54:00;;;;;;;4.22;2.53;;;17.10;99.90;;;;;;5028581;28;20117;-62
2022/07/30 02:56:26;;;;;;;4.55;2.25;;;17.10;99.90;;;;;;5010389;28;20025;-62
2022/07/30 02:58:54;;;;;;;5.05;2.70;;;17.00;99.90;;;;;;5010652;28;20053;-60
2022/07/30 03:01:22;;;;;;;4.30;2.63;;;17.00;99.90;;;;;;5026762;28;20032;-62
2022/07/30 03:03:48;;;;;;;2.67;2.17;;;17.10;99.90;;;;;;5026104;28;20036;-62
2022/07/30 03:06:14;;;;;;;3.88;2.20;;;17.10;99.90;;;;;;5028018;28;20025;-59
2022/07/30 03:08:44;;;;;;;2.60;2.40;;;17.00;99.90;;;;;;5028640;28;20041;-61
2022/07/30 03:11:11;;;;;;;3.08;2.13;;;17.00;99.90;;;;;;5009565;28;20392;-61
2022/07/30 03:13:37;;;;;;;2.70;1.73;;;17.10;99.90;;;;;;5010599;28;20059;-62
2022/07/30 03:16:07;;;;;;;3.38;2.05;;;17.10;99.90;;;;;;5028023;28;20100;-61
2022/07/30 03:18:35;;;;;;;5.15;3.08;;;17.10;99.90;;;;;;5027852;28;20079;-59
2022/07/30 03:21:01;;;;;;;2.75;2.28;;;17.10;99.90;;;;;;5010191;28;20480;-59
2022/07/30 03:23:28;;;;;;;5.13;2.22;;;17.10;99.90;;;;;;5027254;28;20463;-59
2022/07/30 03:26:00;;;;;;;3.85;2.30;;;17.00;99.90;;;;;;5027812;28;20034;-58
2022/07/30 03:28:27;;;;;;;3.85;1.77;;;17.00;99.90;;;;;;5027886;28;20057;-63
2022/07/30 03:30:53;;;;;;;4.60;2.20;;;17.00;99.90;;;;;;5028097;28;20022;-61
2022/07/30 03:33:19;;;;;;;2.75;2.22;;;17.00;99.90;;;;;;4992368;28;20025;-61
2022/07/30 03:35:46;;;;;;;4.00;2.10;;;17.00;99.90;;;;;;5028457;28;20072;-59
2022/07/30 03:38:15;;;;;;;2.13;1.90;;;17.00;99.90;;;;;;5010704;28;20026;-60
2022/07/30 03:40:42;;;;;;;2.30;2.10;;;17.00;99.90;;;;;;5027594;28;20550;-58
2022/07/30 03:43:09;;;;;;;3.97;2.67;;;17.00;99.90;;;;;;5026544;28;20542;-61
2022/07/30 03:45:40;;;;;;;2.63;2.35;;;16.90;99.90;;;;;;5027848;28;20033;-60
2022/07/30 03:48:08;;;;;;;3.80;2.25;;;16.90;99.90;;;;;;5027919;28;20034;-60
2022/07/30 03:50:35;;;;;;;2.00;1.85;;;16.90;99.90;;;;;;5027727;28;20160;-61
2022/07/30 03:53:04;;;;;;;3.38;2.30;;;16.90;99.90;;;;;;5026812;28;20029;-62
2022/07/30 03:55:30;;;;;;;5.55;2.55;;;16.90;99.90;;;;;;5025775;28;20028;-60
2022/07/30 03:57:56;;;;;;;3.28;2.03;;;16.90;99.90;;;;;;5028175;28;20033;-61
2022/07/30 04:00:22;;;;;;;2.30;1.63;;;16.90;99.90;;;;;;5027830;28;20025;-60
2022/07/30 04:02:48;;;;;;;2.60;2.35;;;16.90;99.90;;;;;;5027096;28;20075;-61
2022/07/30 04:05:15;;;;;;;3.22;2.13;;;16.90;99.90;;;;;;5026539;28;20159;-58
2022/07/30 04:07:40;;;;;;;3.22;2.00;;;16.90;99.90;;;;;;5009532;28;20018;-59
2022/07/30 04:10:06;;;;;;;3.50;2.38;;;16.90;99.90;;;;;;5010275;28;20383;-59
2022/07/30 04:12:32;;;;;;;2.95;2.08;;;16.90;99.90;;;;;;5026715;28;20044;-59
2022/07/30 04:14:58;;;;;;;4.43;2.33;;;16.90;99.90;;;;;;5027666;28;20492;-60
2022/07/30 04:17:30;;;;;;;3.53;2.15;;;16.90;99.90;;;;;;5010447;28;20124;-61
2022/07/30 04:20:01;;;;;;;5.45;2.30;;;16.90;99.90;;;;;;5006528;28;20033;-60
2022/07/30 04:22:31;;;;;;;3.90;2.20;;;16.90;99.90;;;;;;5027499;28;20017;-60
2022/07/30 04:24:58;;;;;;;3.53;2.60;;;16.90;99.90;;;;;;5009790;28;20029;-60
2022/07/30 04:27:24;;;;;;;2.85;2.20;;;16.90;99.90;;;;;;5027038;28;20036;-60
2022/07/30 04:29:54;;;;;;;2.40;2.00;;;17.00;99.90;;;;;;5005804;28;20029;-60
2022/07/30 04:32:20;;;;;;;3.25;1.95;;;17.00;99.90;;;;;;5008648;28;20439;-62
2022/07/30 04:34:50;;;;;;;2.20;2.00;;;17.00;99.90;;;;;;5027041;28;20115;-60
2022/07/30 04:37:18;;;;;;;3.38;2.20;;;17.00;99.90;;;;;;5026880;28;20052;-61
2022/07/30 04:39:43;;;;;;;2.83;1.95;;;17.00;99.90;;;;;;5008568;28;20034;-62
2022/07/30 04:42:09;;;;;;;2.92;2.40;;;17.10;99.90;;;;;;5025862;28;20036;-63
2022/07/30 04:44:36;;;;;;;4.47;2.38;;;17.10;99.90;;;;;;5029799;28;20113;-61
2022/07/30 04:47:02;;;;;;;3.58;2.20;;;17.10;99.90;;;;;;5013066;28;20053;-61
2022/07/30 04:49:28;;;;;;;4.88;2.13;;;17.10;99.90;;;;;;5031030;28;20037;-60
2022/07/30 04:51:55;;;;;;;2.47;2.10;;;17.10;99.90;;;;;;5012048;28;20195;-62
2022/07/30 04:54:23;;;;;;;3.28;2.70;;;17.20;99.90;;;;;;5030643;28;20043;-61
2022/07/30 04:56:50;;;;;;;2.38;2.08;;;17.20;99.90;;;;;;5030968;28;20063;-61
2022/07/30 04:59:17;;;;;;;3.63;2.33;;;17.20;99.90;;;;;;5031123;28;20109;-59
2022/07/30 05:01:46;;;;;;;3.67;2.20;;;17.20;99.90;;;;;;5030234;28;20535;-62
2022/07/30 05:04:12;;;;;;;1.85;1.70;;;17.20;99.90;;;;;;5028796;28;20021;-60
2022/07/30 05:06:40;;;;;;;6.53;2.83;;;17.10;99.90;;;;;;5030601;28;20035;-60
2022/07/30 05:09:06;;;;;;;4.50;2.55;;;17.10;99.90;;;;;;5029377;28;20029;-59
2022/07/30 05:11:32;;;;;;;5.22;2.45;;;17.20;99.90;;;;;;5024087;28;20522;-62
2022/07/30 05:13:57;;;;;;;2.58;2.00;;;17.20;99.90;;;;;;5030567;28;20113;-61
2022/07/30 05:16:23;;;;;;;5.63;2.72;;;17.10;99.90;;;;;;5012463;28;20108;-60
2022/07/30 05:18:49;;;;;;;4.47;2.30;;;17.20;99.90;;;;;;5012586;28;20036;-61
2022/07/30 05:21:15;;;;;;;2.30;2.08;;;17.20;99.90;;;;;;5028706;28;20048;-61
2022/07/30 05:23:41;;;;;;;6.03;2.90;;;17.20;99.90;;;;;;5030640;28;20033;-61
2022/07/30 05:26:06;;;;;;;3.33;1.88;;;17.10;99.90;;;;;;5030187;28;20407;-61
2022/07/30 05:28:32;;;;;;;4.20;2.20;;;17.10;99.90;;;;;;5012535;28;20032;-63
2022/07/30 05:30:57;;;;;;;3.03;2.08;;;17.10;99.90;;;;;;5030280;28;20056;-59
2022/07/30 05:33:23;;;;;;;3.67;2.25;;;17.10;99.90;;;;;;5029565;28;20060;-60
2022/07/30 05:35:49;;;;;;;3.53;2.45;;;17.10;99.90;;;;;;5012315;28;20537;-61
2022/07/30 05:38:17;;;;;;;4.07;2.40;;;17.10;99.90;;;;;;5030208;28;20017;-62
2022/07/30 05:40:43;;;;;;;4.28;2.40;;;17.20;99.90;;;;;;5011973;28;20528;-62
2022/07/30 05:43:09;;;;;;;3.65;2.15;;;17.20;99.90;;;;;;5028415;28;20038;-61
2022/07/30 05:45:35;;;;;;;4.43;2.28;;;17.20;99.90;;;;;;5011934;28;20026;-61
2022/07/30 05:48:00;;;;;;;2.92;2.00;;;17.20;99.90;;;;;;5029386;28;20021;-60
2022/07/30 05:50:26;;;;;;;3.80;2.13;;;17.20;99.90;;;;;;5011932;28;20531;-61
2022/07/30 05:52:52;;;;;;;3.38;2.22;;;17.30;99.90;;;;;;5010229;28;20041;-62
2022/07/30 05:55:18;;;;;;;2.38;1.85;;;17.20;99.90;;;;;;5028693;28;20075;-60
2022/07/30 05:57:43;;;;;;;2.42;2.22;;;17.20;99.90;;;;;;5029415;28;20025;-61
2022/07/30 06:00:11;;;;;;;3.67;2.40;;;17.30;99.90;;;;;;5030035;28;20026;-61
2022/07/30 06:02:38;;;;;;;3.10;2.30;;;17.20;99.90;;;;;;5009315;28;20137;-59
2022/07/30 06:05:04;;;;;;;4.43;2.53;;;17.30;99.90;;;;;;5010832;28;20021;-60
2022/07/30 06:07:29;;;;;;;4.40;2.47;;;17.30;99.90;;;;;;5029687;28;20032;-61
2022/07/30 06:09:58;;;;;;;3.05;2.13;;;17.30;99.90;;;;;;5029712;28;20083;-62
2022/07/30 06:12:25;;;;;;;3.20;2.08;;;17.20;99.90;;;;;;5028553;28;20480;-60
2022/07/30 06:14:51;;;;;;;5.93;2.17;;;17.30;99.90;;;;;;5011574;28;20025;-61
2022/07/30 06:17:17;;;;;;;8.27;2.20;;;17.30;99.90;;;;;;5028633;28;20573;-62
2022/07/30 06:19:42;;;;;;;5.88;2.42;;;17.30;99.90;;;;;;5029368;28;20067;-60
2022/07/30 06:22:08;;;;;;;4.18;2.13;;;17.30;99.90;;;;;;5028018;28;20037;-58
2022/07/30 06:24:33;;;;;;;2.33;2.15;;;17.40;99.90;;;;;;5028373;28;20033;-61
2022/07/30 06:26:59;;;;;;;2.08;1.77;;;17.40;99.90;;;;;;5029552;28;20104;-61
2022/07/30 06:29:25;;;;;;;4.22;2.63;;;17.40;99.90;;;;;;5012150;28;20056;-61
2022/07/30 06:31:50;;;;;;;3.95;2.38;;;17.40;99.90;;;;;;5027647;28;20033;-62
2022/07/30 06:34:16;;;;;;;2.13;1.92;;;17.40;99.90;;;;;;5029352;28;20030;-58
2022/07/30 06:36:41;;;;;;;2.42;2.22;;;17.40;99.90;;;;;;5028582;28;20018;-60
2022/07/30 06:39:07;;;;;;;3.47;2.28;;;17.40;99.90;;;;;;5028153;28;20033;-60
2022/07/30 06:41:33;;;;;;;5.15;2.53;;;17.40;99.90;;;;;;5028531;28;20052;-60
2022/07/30 06:43:58;;;;;;;2.88;2.15;;;17.50;99.90;;;;;;5010157;28;20033;-59
2022/07/30 06:46:24;;;;;;;4.35;2.10;;;17.50;99.90;;;;;;5028992;28;20014;-60
2022/07/30 06:48:49;;;;;;;3.33;1.83;;;17.50;99.90;;;;;;5029051;28;20491;-60
2022/07/30 06:51:15;;;;;;;2.22;2.03;;;17.50;99.90;;;;;;5028015;28;20487;-60
2022/07/30 06:53:40;;;;;;;5.15;2.15;;;17.60;99.90;;;;;;5028559;28;20029;-62
2022/07/30 06:56:06;;;;;;;2.33;1.98;;;17.60;99.90;;;;;;5028591;28;20038;-63
2022/07/30 06:58:31;;;;;;;4.38;2.08;;;17.60;99.90;;;;;;5028697;28;20518;-61
2022/07/30 07:00:57;;;;;;;3.08;2.25;;;17.60;99.90;;;;;;5027682;28;20091;-62
2022/07/30 07:03:24;;;;;;;1.98;1.77;;;17.60;99.90;;;;;;5025927;28;20034;-61
2022/07/30 07:05:50;;;;;;;2.20;1.92;;;17.60;99.90;;;;;;5027789;28;20036;-62
2022/07/30 07:08:17;;;;;;;4.60;2.05;;;17.60;99.90;;;;;;5010578;28;20029;-61
2022/07/30 07:10:42;;;;;;;4.45;2.38;;;17.60;99.90;;;;;;5009925;28;20504;-61
2022/07/30 07:13:08;;;;;;;2.33;2.13;;;17.70;99.90;;;;;;5026886;28;20043;-61
2022/07/30 07:15:34;;;;;;;3.22;2.00;;;17.70;99.90;;;;;;5027117;28;20030;-60
2022/07/30 07:17:59;;;;;;;1.88;1.77;;;17.70;99.90;;;;;;5027963;28;20484;-59
2022/07/30 07:20:25;;;;;;;2.10;1.98;;;17.70;99.90;;;;;;5028155;28;20028;-60
2022/07/30 07:22:50;;;;;;;2.38;2.10;;;17.80;99.90;;;;;;5027446;28;20033;-62
2022/07/30 07:25:16;;;;;;;2.00;1.90;;;17.80;99.90;;;;;;5028528;28;20533;-62
2022/07/30 07:27:42;;;;;;;3.38;2.50;;;17.80;99.90;;;;;;5028321;28;20025;-62
2022/07/30 07:30:08;;;;;;;2.38;2.17;;;17.80;99.90;;;;;;5027395;28;20033;-63
2022/07/30 07:32:34;;;;;;;2.20;2.00;;;17.90;99.90;;;;;;5026617;28;20064;-62
2022/07/30 07:35:00;;;;;;;2.20;1.95;;;17.90;99.90;;;;;;5026902;28;20037;-60
2022/07/30 07:37:26;;;;;;;3.60;2.20;;;17.90;99.90;;;;;;5028440;28;20022;-62
2022/07/30 07:39:51;;;;;;;3.42;2.25;;;18.00;99.90;;;;;;5010678;28;20021;-62
2022/07/30 07:42:17;;;;;;;4.95;2.25;;;18.00;99.90;;;;;;5026856;28;20377;-60
2022/07/30 07:44:42;;;;;;;1.75;1.65;;;18.00;99.90;;;;;;5028469;28;20510;-61
2022/07/30 07:47:08;;;;;;;3.50;2.25;;;18.00;99.90;;;;;;5027851;28;21383;-61
2022/07/30 07:49:34;;;;;;;1.77;1.67;;;18.10;99.90;;;;;;5028061;28;20492;-62
2022/07/30 07:51:59;;;;;;;1.73;1.50;;;18.10;99.90;;;;;;5051058;22;20133;-63
2022/07/30 07:54:25;;;;;;;2.88;2.17;;;18.20;99.90;;;;;;5032823;28;20032;-63
2022/07/30 07:56:51;;;;;;;2.72;1.80;;;18.20;99.90;;;;;;5032795;28;20075;-63
2022/07/30 07:59:17;;;;;;;3.40;1.88;;;18.30;99.90;;;;;;5031985;28;20068;-62
2022/07/30 08:01:45;;;;;;;2.20;2.00;;;18.30;99.90;;;;;;5030643;28;20017;-63
2022/07/30 08:04:10;;;;;;;2.15;1.95;;;18.30;99.90;;;;;;5028419;28;20064;-63
2022/07/30 08:06:36;;;;;;;2.65;2.38;;;18.40;99.90;;;;;;5028631;28;20068;-63
2022/07/30 08:09:02;;;;;;;2.53;2.25;;;18.50;99.90;;;;;;5027850;28;20055;-63
2022/07/30 08:11:27;;;;;;;2.38;2.10;;;18.50;99.90;;;;;;5028047;28;20033;-62
2022/07/30 08:13:53;;;;;;;2.55;2.13;;;18.60;99.90;;;;;;5028180;28;20021;-62
2022/07/30 08:16:19;;;;;;;2.72;2.28;;;18.70;99.90;;;;;;5027675;28;20048;-62
2022/07/30 08:18:44;;;;;;;3.28;2.20;;;18.80;99.90;;;;;;5029932;28;20484;-62
2022/07/30 08:21:10;;;;;;;4.63;2.20;;;18.90;99.90;;;;;;5031725;28;20547;-63
2022/07/30 08:23:36;;;;;;;3.22;2.30;;;18.90;99.90;;;;;;5030895;28;20387;-63
2022/07/30 08:26:02;;;;;;;6.45;2.85;;;19.00;99.90;;;;;;5032078;28;20073;-62
2022/07/30 08:28:27;;;;;;;3.83;2.78;;;19.10;99.90;;;;;;5031701;28;20297;-63
2022/07/30 08:30:53;;;;;;;3.92;3.00;;;19.20;99.90;;;;;;5030011;28;20036;-63
2022/07/30 08:33:18;;;;;;;2.50;2.30;;;19.20;99.90;;;;;;5029292;28;20037;-63
2022/07/30 08:35:44;;;;;;;3.03;2.20;;;19.30;99.90;;;;;;5032319;28;20020;-62
2022/07/30 08:38:11;;;;;;;4.05;2.97;;;19.40;99.90;;;;;;5031649;28;20404;-63
2022/07/30 08:40:37;;;;;;;2.85;2.42;;;19.40;99.90;;;;;;5031923;28;20304;-63
2022/07/30 08:43:05;;;;;;;4.03;2.63;;;19.60;99.90;;;;;;5030632;28;20490;-63
2022/07/30 08:45:32;;;;;;;4.82;2.65;;;19.70;99.90;;;;;;5029224;28;20021;-63
2022/07/30 08:48:00;;;;;;;5.50;3.08;;;19.70;99.90;;;;;;5030876;28;20511;-62
2022/07/30 08:50:27;;;;;;;4.25;2.95;;;19.80;99.90;;;;;;5031739;28;20128;-62
2022/07/30 08:52:54;;;;;;;4.03;2.75;;;19.90;99.90;;;;;;5029808;28;20021;-62
2022/07/30 08:55:21;;;;;;;3.50;2.78;;;20.00;99.90;;;;;;5030279;28;20010;-63
2022/07/30 08:57:48;;;;;;;2.70;2.25;;;20.10;99.90;;;;;;5027688;28;20032;-61
2022/07/30 09:00:14;;;;;;;2.95;2.58;;;20.10;99.90;;;;;;5031353;28;20017;-62
2022/07/30 09:02:39;;;;;;;3.50;2.50;;;20.10;99.90;;;;;;5030125;28;20040;-62
2022/07/30 09:05:06;;;;;;;4.75;2.78;;;20.20;99.90;;;;;;5031412;28;20029;-62
2022/07/30 09:07:33;;;;;;;4.07;2.40;;;20.20;99.90;;;;;;5029633;28;20035;-62
2022/07/30 09:09:59;;;;;;;2.45;2.25;;;20.20;99.90;;;;;;5030001;28;20479;-62
2022/07/30 09:12:42;;;;;;;3.78;2.65;;;20.20;99.90;;;;;;5012613;28;20112;-62
2022/07/30 09:15:17;;;;;;;2.60;2.30;;;20.20;99.90;;;;;;5029941;28;20045;-61
2022/07/30 09:17:57;;;;;;;3.75;2.30;;;20.30;99.90;;;;;;5030636;28;20333;-60
2022/07/30 09:20:25;;;;;;;4.68;2.90;;;20.30;99.90;;;;;;5024547;28;20013;-61
2022/07/30 09:22:54;;;;;;;3.25;2.40;;;20.40;99.90;;;;;;5029010;28;20326;-62
2022/07/30 09:25:57;;;;;;;3.15;2.67;;;20.50;99.90;;;;;;5030876;28;20021;-62
2022/07/30 09:28:29;;;;;;;3.17;2.88;;;20.40;99.90;;;;;;4948047;29;20438;-60
2022/07/30 09:30:55;;;;;;;2.67;2.20;;;20.50;99.90;;;;;;5010335;28;20111;-61
2022/07/30 09:33:42;;;;;;;5.07;2.58;;;20.60;99.90;;;;;;5027810;28;20029;-61
2022/07/30 09:36:11;;;;;;;2.72;2.42;;;20.50;99.90;;;;;;5030160;28;20182;-61
2022/07/30 09:38:50;;;;;;;4.15;2.85;;;20.50;99.90;;;;;;5030268;28;20156;-61
2022/07/30 09:41:31;;;;;;;6.50;2.50;;;20.50;99.90;;;;;;5004159;28;20029;-61
2022/07/30 09:43:57;;;;;;;5.35;2.38;;;20.60;99.90;;;;;;5028595;28;20017;-63
2022/07/30 09:46:40;;;;;;;2.92;2.63;;;20.70;99.90;;;;;;5029554;28;20508;-61
2022/07/30 09:49:20;;;;;;;3.53;2.80;;;20.70;99.90;;;;;;5029241;28;20037;-61
2022/07/30 09:51:46;;;;;;;3.47;2.53;;;20.70;99.90;;;;;;5010582;28;20519;-61
2022/07/30 09:54:12;;;;;;;2.92;2.65;;;20.70;99.90;;;;;;5030535;28;20452;-60
2022/07/30 09:56:38;;;;;;;4.25;2.75;;;20.80;99.90;;;;;;5027838;28;20040;-61
2022/07/30 09:59:05;;;;;;;4.28;2.85;;;20.80;99.90;;;;;;5028816;28;20030;-63
2022/07/30 10:01:52;;;;;;;4.13;2.75;;;20.80;99.90;;;;;;5025571;28;20021;-62
2022/07/30 10:04:30;;;;;;;3.67;2.83;;;20.90;99.90;;;;;;5025063;28;20029;-60
2022/07/30 10:06:58;;;;;;;4.80;2.95;;;20.90;99.90;;;;;;5028909;28;20024;-59
2022/07/30 10:09:32;;;;;;;4.30;2.50;;;20.90;99.90;;;;;;5024547;28;20021;-61
2022/07/30 10:12:00;;;;;;;3.67;3.00;;;21.00;99.90;;;;;;5026399;28;20022;-60
2022/07/30 10:14:32;;;;;;;3.95;2.58;;;21.00;99.90;;;;;;5029326;28;20038;-61
2022/07/30 10:16:59;;;;;;;5.45;2.50;;;21.10;99.90;;;;;;5030149;28;20048;-62
2022/07/30 10:19:25;;;;;;;5.13;3.10;;;21.20;99.90;;;;;;5028401;28;20467;-60
2022/07/30 10:21:52;;;;;;;4.10;2.78;;;21.30;99.90;;;;;;5026866;28;20032;-61
2022/07/30 10:24:20;;;;;;;3.78;3.05;;;21.30;99.90;;;;;;5029453;28;20017;-63
2022/07/30 10:26:46;;;;;;;2.97;2.08;;;21.50;99.90;;;;;;5029828;28;20034;-62
2022/07/30 10:29:16;;;;;;;6.38;2.75;;;21.50;99.90;;;;;;5029560;28;20111;-61
2022/07/30 10:31:42;;;;;;;3.65;2.42;;;21.60;99.90;;;;;;5020632;28;20036;-61
2022/07/30 10:34:09;;;;;;;3.30;3.00;;;21.60;99.90;;;;;;5028428;28;20034;-60
2022/07/30 10:36:35;;;;;;;4.13;3.20;;;21.70;99.90;;;;;;5029347;28;20013;-60
2022/07/30 10:39:01;;;;;;;4.15;2.97;;;21.70;99.90;;;;;;5029242;28;20044;-62
2022/07/30 10:41:45;;;;;;;3.20;2.90;;;21.70;99.90;;;;;;5028052;28;20036;-62
2022/07/30 10:44:32;;;;;;;3.10;2.88;;;21.70;99.90;;;;;;5028198;28;20030;-59
2022/07/30 10:47:06;;;;;;;5.18;3.05;;;21.80;99.90;;;;;;5025444;28;20026;-62
2022/07/30 10:49:32;;;;;;;3.45;2.75;;;21.80;99.90;;;;;;5029449;28;20100;-59
2022/07/30 10:51:58;;;;;;;4.28;2.88;;;21.80;99.90;;;;;;5027052;28;20117;-62
2022/07/30 10:54:33;;;;;;;3.28;2.72;;;21.90;99.90;;;;;;5029321;28;20021;-62
2022/07/30 10:57:22;;;;;;;3.92;2.80;;;22.00;99.90;;;;;;5027080;28;20048;-62
2022/07/30 10:59:54;;;;;;;5.28;2.90;;;22.00;99.90;;;;;;5014853;28;20400;-62
2022/07/30 11:02:21;;;;;;;4.28;2.85;;;22.00;99.90;;;;;;5024304;28;20018;-62
2022/07/30 11:04:47;;;;;;;4.32;3.25;;;22.00;99.90;;;;;;5028771;28;20029;-62
2022/07/30 11:07:28;;;;;;;4.72;2.67;;;21.90;99.90;;;;;;5029319;28;20078;-61
2022/07/30 11:09:59;;;;;;;3.95;3.22;;;21.90;99.90;;;;;;5026223;28;20139;-61
2022/07/30 11:12:46;;;;;;;3.75;2.97;;;21.80;99.90;;;;;;5027447;28;20083;-62
2022/07/30 11:15:13;;;;;;;4.32;3.35;;;21.80;99.90;;;;;;5028722;28;20014;-62
2022/07/30 11:17:58;;;;;;;5.93;2.83;;;21.70;99.90;;;;;;5028820;28;20024;-60
2022/07/30 11:20:25;;;;;;;3.95;2.92;;;21.70;99.90;;;;;;5021573;28;20021;-60
2022/07/30 11:22:51;;;;;;;3.33;2.83;;;21.70;99.90;;;;;;5026142;28;20567;-60
2022/07/30 11:25:26;;;;;;;4.82;3.35;;;21.80;99.90;;;;;;5028457;28;20025;-63
2022/07/30 11:27:52;;;;;;;2.80;2.60;;;21.80;99.90;;;;;;5025476;28;20488;-62
2022/07/30 11:30:21;;;;;;;4.30;2.65;;;21.80;99.90;;;;;;5028140;28;20057;-63
2022/07/30 11:32:51;;;;;;;6.00;2.97;;;21.90;99.90;;;;;;5010348;28;20497;-60
2022/07/30 11:35:27;;;;;;;2.92;2.70;;;22.00;99.90;;;;;;5025047;28;20049;-62
2022/07/30 11:38:00;;;;;;;2.33;2.20;;;21.90;99.90;;;;;;5010723;28;20036;-60
2022/07/30 11:40:31;;;;;;;3.08;2.42;;;21.90;99.90;;;;;;5028531;28;20025;-62
2022/07/30 11:43:17;;;;;;;3.13;2.65;;;21.90;99.90;;;;;;5024961;28;20100;-61
2022/07/30 11:45:47;;;;;;;3.92;3.08;;;21.90;99.90;;;;;;5027679;28;20135;-60
2022/07/30 11:48:14;;;;;;;4.57;2.53;;;21.80;99.90;;;;;;5009852;28;20084;-61
2022/07/30 11:50:41;;;;;;;3.03;2.50;;;21.80;99.90;;;;;;5027057;28;20083;-60
2022/07/30 11:53:09;;;;;;;3.35;2.72;;;21.80;99.90;;;;;;5029265;28;20040;-62
2022/07/30 11:55:41;;;;;;;6.60;2.90;;;21.80;99.90;;;;;;5032189;28;20025;-60
2022/07/30 11:58:34;;;;;;;3.85;3.22;;;21.80;99.90;;;;;;5032201;28;20109;-59
2022/07/30 12:01:15;;;;;;;6.72;3.03;;;21.80;99.90;;;;;;5014204;28;20049;-62
2022/07/30 12:03:43;;;;;;;3.45;2.50;;;21.80;99.90;;;;;;5032393;28;20030;-64
2022/07/30 12:06:20;;;;;;;4.10;2.90;;;21.90;99.90;;;;;;5032184;28;20025;-62
2022/07/30 12:08:48;;;;;;;2.53;2.33;;;21.80;99.90;;;;;;5032384;28;20035;-59
2022/07/30 12:11:14;;;;;;;4.70;3.13;;;22.00;99.90;;;;;;5031092;28;20025;-61
2022/07/30 12:13:42;;;;;;;7.20;3.00;;;22.10;99.90;;;;;;5030801;28;20021;-60
2022/07/30 12:16:09;;;;;;;4.18;2.38;;;22.20;99.90;;;;;;5031881;28;20087;-58
2022/07/30 12:18:35;;;;;;;5.13;3.05;;;22.30;99.90;;;;;;5032115;28;20562;-63
2022/07/30 12:21:03;;;;;;;5.20;2.88;;;22.30;99.90;;;;;;5032064;28;20033;-60
2022/07/30 12:23:30;;;;;;;5.43;2.45;;;22.30;99.90;;;;;;5030979;28;20028;-59
2022/07/30 12:25:56;;;;;;;5.38;2.97;;;22.50;99.90;;;;;;5032070;28;20029;-61
2022/07/30 12:28:25;;;;;;;3.63;2.75;;;22.60;99.90;;;;;;5031363;28;20364;-61
2022/07/30 12:30:52;;;;;;;3.03;2.50;;;22.60;99.90;;;;;;5013479;28;20033;-59
2022/07/30 12:33:18;;;;;;;2.40;2.20;;;22.70;99.90;;;;;;5030772;28;20064;-61
2022/07/30 12:35:55;;;;;;;3.83;2.28;;;22.80;99.90;;;;;;5031361;28;20009;-61
2022/07/30 12:38:22;;;;;;;3.72;2.67;;;22.80;99.90;;;;;;5025656;28;20352;-62
2022/07/30 12:41:03;;;;;;;2.85;2.65;;;22.90;99.90;;;;;;5031708;28;20080;-60
2022/07/30 12:43:52;;;;;;;4.45;2.83;;;23.00;99.90;;;;;;5024918;28;20495;-60
2022/07/30 12:46:25;;;;;;;3.58;2.50;;;23.00;99.90;;;;;;5023375;28;20551;-62
2022/07/30 12:48:51;;;;;;;2.88;2.42;;;23.00;99.90;;;;;;5030973;28;20427;-60
2022/07/30 12:51:16;;;;;;;3.55;2.67;;;23.10;99.90;;;;;;5030602;28;20040;-61
2022/07/30 12:53:42;;;;;;;3.80;2.70;;;23.10;99.90;;;;;;5031277;28;20100;-60
2022/07/30 12:56:16;;;;;;;6.70;3.15;;;23.20;99.90;;;;;;5031617;28;20029;-61
2022/07/30 12:58:42;;;;;;;2.95;2.63;;;23.30;99.90;;;;;;5031305;28;20025;-59